sensor_id;sensor_type;location;lat;lon;timestamp;pressure;altitude;pressure_sealevel;temperature;humidity
62928;BME280;51070;52.236;-0.892;2023-07-29T00:00:31;99627.71;;;17.25;93.01
62928;BME280;51070;52.236;-0.892;2023-07-29T00:02:57;99626.86;;;17.24;93.01
62928;BME280;51070;52.236;-0.892;2023-07-29T00:05:22;99623.95;;;17.20;93.02
62928;BME280;51070;52.236;-0.892;2023-07-29T00:07:47;99626.04;;;17.20;92.86
62928;BME280;51070;52.236;-0.892;2023-07-29T00:10:13;99619.91;;;17.21;92.71
62928;BME280;51070;52.236;-0.892;2023-07-29T00:12:38;99619.38;;;17.22;92.44
62928;BME280;51070;52.236;-0.892;2023-07-29T00:15:04;99623.07;;;17.20;92.23
62928;BME280;51070;52.236;-0.892;2023-07-29T00:17:30;99615.56;;;17.18;92.38
62928;BME280;51070;52.236;-0.892;2023-07-29T00:19:55;99620.15;;;17.16;92.42
62928;BME280;51070;52.236;-0.892;2023-07-29T00:22:20;99617.91;;;17.11;92.38
62928;BME280;51070;52.236;-0.892;2023-07-29T00:24:53;99620.35;;;17.12;92.42
62928;BME280;51070;52.236;-0.892;2023-07-29T00:27:23;99623.31;;;17.14;92.56
62928;BME280;51070;52.236;-0.892;2023-07-29T00:29:49;99619.30;;;17.14;92.51
62928;BME280;51070;52.236;-0.892;2023-07-29T00:32:14;99618.08;;;17.13;92.38
62928;BME280;51070;52.236;-0.892;2023-07-29T00:34:40;99618.84;;;17.08;92.62
62928;BME280;51070;52.236;-0.892;2023-07-29T00:37:05;99616.11;;;17.04;92.54
62928;BME280;51070;52.236;-0.892;2023-07-29T00:39:32;99611.77;;;17.00;92.79
62928;BME280;51070;52.236;-0.892;2023-07-29T00:41:57;99613.02;;;16.98;92.84
62928;BME280;51070;52.236;-0.892;2023-07-29T00:44:23;99617.91;;;16.97;92.93
62928;BME280;51070;52.236;-0.892;2023-07-29T00:46:51;99617.09;;;16.94;93.28
62928;BME280;51070;52.236;-0.892;2023-07-29T00:49:17;99617.27;;;16.94;93.38
62928;BME280;51070;52.236;-0.892;2023-07-29T00:51:43;99621.80;;;16.94;93.37
62928;BME280;51070;52.236;-0.892;2023-07-29T00:54:09;99622.48;;;16.95;93.25
62928;BME280;51070;52.236;-0.892;2023-07-29T00:56:34;99620.76;;;16.94;93.33
62928;BME280;51070;52.236;-0.892;2023-07-29T00:59:01;99626.67;;;16.95;93.22
62928;BME280;51070;52.236;-0.892;2023-07-29T01:01:31;99626.13;;;16.96;93.10
62928;BME280;51070;52.236;-0.892;2023-07-29T01:03:57;99628.05;;;16.95;92.97
62928;BME280;51070;52.236;-0.892;2023-07-29T01:09:04;99621.23;;;16.95;92.95
62928;BME280;51070;52.236;-0.892;2023-07-29T01:14:55;99619.54;;;16.93;93.69
62928;BME280;51070;52.236;-0.892;2023-07-29T01:17:33;99617.45;;;16.92;93.89
62928;BME280;51070;52.236;-0.892;2023-07-29T01:20:07;99619.35;;;16.94;93.85
62928;BME280;51070;52.236;-0.892;2023-07-29T01:22:37;99620.71;;;16.96;93.39
62928;BME280;51070;52.236;-0.892;2023-07-29T01:25:03;99618.82;;;16.95;93.54
62928;BME280;51070;52.236;-0.892;2023-07-29T01:27:29;99616.06;;;16.90;93.65
62928;BME280;51070;52.236;-0.892;2023-07-29T01:29:57;99609.47;;;16.88;93.97
62928;BME280;51070;52.236;-0.892;2023-07-29T01:35:31;99601.83;;;16.85;94.18
62928;BME280;51070;52.236;-0.892;2023-07-29T01:38:19;99600.41;;;16.87;93.95
62928;BME280;51070;52.236;-0.892;2023-07-29T01:40:48;99595.88;;;16.86;93.52
62928;BME280;51070;52.236;-0.892;2023-07-29T01:43:15;99596.23;;;16.85;93.48
62928;BME280;51070;52.236;-0.892;2023-07-29T01:45:41;99595.23;;;16.84;93.40
62928;BME280;51070;52.236;-0.892;2023-07-29T01:48:07;99595.77;;;16.80;93.68
62928;BME280;51070;52.236;-0.892;2023-07-29T01:50:33;99594.94;;;16.78;93.54
62928;BME280;51070;52.236;-0.892;2023-07-29T01:52:59;99592.46;;;16.79;93.59
62928;BME280;51070;52.236;-0.892;2023-07-29T01:55:25;99590.88;;;16.81;93.79
62928;BME280;51070;52.236;-0.892;2023-07-29T01:57:50;99592.23;;;16.85;93.53
62928;BME280;51070;52.236;-0.892;2023-07-29T02:00:18;99589.97;;;16.85;92.94
62928;BME280;51070;52.236;-0.892;2023-07-29T02:02:43;99587.91;;;16.80;92.72
62928;BME280;51070;52.236;-0.892;2023-07-29T02:05:09;99588.29;;;16.78;92.52
62928;BME280;51070;52.236;-0.892;2023-07-29T02:07:34;99593.02;;;16.77;92.32
62928;BME280;51070;52.236;-0.892;2023-07-29T02:09:59;99593.39;;;16.73;92.11
62928;BME280;51070;52.236;-0.892;2023-07-29T02:12:25;99591.69;;;16.71;92.13
62928;BME280;51070;52.236;-0.892;2023-07-29T02:14:50;99593.95;;;16.70;92.15
62928;BME280;51070;52.236;-0.892;2023-07-29T02:17:16;99588.92;;;16.68;92.01
62928;BME280;51070;52.236;-0.892;2023-07-29T02:19:42;99583.20;;;16.65;91.98
62928;BME280;51070;52.236;-0.892;2023-07-29T02:22:07;99580.98;;;16.60;92.29
62928;BME280;51070;52.236;-0.892;2023-07-29T02:24:32;99583.27;;;16.56;92.32
62928;BME280;51070;52.236;-0.892;2023-07-29T02:26:58;99581.02;;;16.54;92.40
62928;BME280;51070;52.236;-0.892;2023-07-29T02:29:23;99582.23;;;16.54;92.38
62928;BME280;51070;52.236;-0.892;2023-07-29T02:31:50;99583.98;;;16.55;92.32
62928;BME280;51070;52.236;-0.892;2023-07-29T02:34:15;99580.98;;;16.58;92.00
62928;BME280;51070;52.236;-0.892;2023-07-29T02:36:41;99580.98;;;16.59;91.89
62928;BME280;51070;52.236;-0.892;2023-07-29T02:39:06;99576.46;;;16.57;91.84
62928;BME280;51070;52.236;-0.892;2023-07-29T02:41:31;99576.85;;;16.52;91.76
62928;BME280;51070;52.236;-0.892;2023-07-29T02:43:57;99581.62;;;16.46;92.15
62928;BME280;51070;52.236;-0.892;2023-07-29T02:46:22;99579.56;;;16.41;92.41
62928;BME280;51070;52.236;-0.892;2023-07-29T02:48:47;99576.63;;;16.40;92.49
62928;BME280;51070;52.236;-0.892;2023-07-29T02:51:13;99572.41;;;16.41;92.51
62928;BME280;51070;52.236;-0.892;2023-07-29T02:53:39;99566.48;;;16.42;92.46
62928;BME280;51070;52.236;-0.892;2023-07-29T02:56:04;99570.15;;;16.42;92.45
62928;BME280;51070;52.236;-0.892;2023-07-29T02:58:31;99573.63;;;16.43;92.44
62928;BME280;51070;52.236;-0.892;2023-07-29T03:01:04;99571.89;;;16.42;92.62
62928;BME280;51070;52.236;-0.892;2023-07-29T03:03:30;99570.21;;;16.35;92.83
62928;BME280;51070;52.236;-0.892;2023-07-29T03:06:05;99572.33;;;16.32;93.02
62928;BME280;51070;52.236;-0.892;2023-07-29T03:08:31;99567.27;;;16.31;93.32
62928;BME280;51070;52.236;-0.892;2023-07-29T03:10:57;99565.20;;;16.30;93.48
62928;BME280;51070;52.236;-0.892;2023-07-29T03:13:23;99565.71;;;16.30;93.54
62928;BME280;51070;52.236;-0.892;2023-07-29T03:15:48;99568.51;;;16.31;93.58
62928;BME280;51070;52.236;-0.892;2023-07-29T03:18:14;99566.77;;;16.30;93.88
62928;BME280;51070;52.236;-0.892;2023-07-29T03:20:40;99568.20;;;16.28;94.21
62928;BME280;51070;52.236;-0.892;2023-07-29T03:23:06;99567.32;;;16.29;94.19
62928;BME280;51070;52.236;-0.892;2023-07-29T03:25:32;99568.88;;;16.29;94.27
62928;BME280;51070;52.236;-0.892;2023-07-29T03:27:57;99563.84;;;16.27;94.75
62928;BME280;51070;52.236;-0.892;2023-07-29T03:30:23;99561.56;;;16.27;94.75
62928;BME280;51070;52.236;-0.892;2023-07-29T03:32:49;99560.88;;;16.26;94.68
62928;BME280;51070;52.236;-0.892;2023-07-29T03:35:15;99560.70;;;16.28;94.62
62928;BME280;51070;52.236;-0.892;2023-07-29T03:37:41;99563.13;;;16.30;94.35
62928;BME280;51070;52.236;-0.892;2023-07-29T03:40:07;99565.89;;;16.30;94.25
62928;BME280;51070;52.236;-0.892;2023-07-29T03:42:34;99564.66;;;16.31;94.24
62928;BME280;51070;52.236;-0.892;2023-07-29T03:44:59;99561.73;;;16.30;94.27
62928;BME280;51070;52.236;-0.892;2023-07-29T03:47:25;99565.21;;;16.29;94.24
62928;BME280;51070;52.236;-0.892;2023-07-29T03:49:50;99562.23;;;16.31;94.31
62928;BME280;51070;52.236;-0.892;2023-07-29T03:52:15;99554.38;;;16.32;94.02
62928;BME280;51070;52.236;-0.892;2023-07-29T03:54:41;99555.77;;;16.33;94.02
62928;BME280;51070;52.236;-0.892;2023-07-29T03:57:06;99562.70;;;16.36;93.75
62928;BME280;51070;52.236;-0.892;2023-07-29T03:59:32;99559.25;;;16.34;93.76
62928;BME280;51070;52.236;-0.892;2023-07-29T04:01:57;99563.98;;;16.32;93.76
62928;BME280;51070;52.236;-0.892;2023-07-29T04:04:22;99565.06;;;16.26;94.00
62928;BME280;51070;52.236;-0.892;2023-07-29T04:06:48;99558.13;;;16.22;93.91
62928;BME280;51070;52.236;-0.892;2023-07-29T04:09:13;99558.65;;;16.20;94.04
62928;BME280;51070;52.236;-0.892;2023-07-29T04:11:39;99562.00;;;16.19;94.06
62928;BME280;51070;52.236;-0.892;2023-07-29T04:14:04;99566.36;;;16.19;93.94
62928;BME280;51070;52.236;-0.892;2023-07-29T04:16:29;99568.95;;;16.21;93.98
62928;BME280;51070;52.236;-0.892;2023-07-29T04:18:55;99568.59;;;16.22;93.96
62928;BME280;51070;52.236;-0.892;2023-07-29T04:21:20;99571.36;;;16.24;93.91
62928;BME280;51070;52.236;-0.892;2023-07-29T04:23:45;99571.86;;;16.25;93.73
62928;BME280;51070;52.236;-0.892;2023-07-29T04:26:11;99571.04;;;16.22;93.99
62928;BME280;51070;52.236;-0.892;2023-07-29T04:28:36;99572.13;;;16.16;94.21
62928;BME280;51070;52.236;-0.892;2023-07-29T04:31:02;99574.45;;;16.10;94.57
62928;BME280;51070;52.236;-0.892;2023-07-29T04:33:29;99574.32;;;16.05;94.98
62928;BME280;51070;52.236;-0.892;2023-07-29T04:35:54;99572.95;;;16.02;95.10
62928;BME280;51070;52.236;-0.892;2023-07-29T04:38:20;99575.76;;;15.99;95.44
62928;BME280;51070;52.236;-0.892;2023-07-29T04:40:45;99576.14;;;15.97;95.47
62928;BME280;51070;52.236;-0.892;2023-07-29T04:43:10;99575.27;;;15.97;95.53
62928;BME280;51070;52.236;-0.892;2023-07-29T04:45:42;99571.79;;;15.95;95.67
62928;BME280;51070;52.236;-0.892;2023-07-29T04:48:07;99572.30;;;15.93;95.97
62928;BME280;51070;52.236;-0.892;2023-07-29T04:50:33;99566.60;;;15.90;96.09
62928;BME280;51070;52.236;-0.892;2023-07-29T04:52:58;99572.35;;;15.89;96.41
62928;BME280;51070;52.236;-0.892;2023-07-29T04:55:24;99570.10;;;15.88;96.40
62928;BME280;51070;52.236;-0.892;2023-07-29T04:57:49;99570.09;;;15.88;96.42
62928;BME280;51070;52.236;-0.892;2023-07-29T05:00:15;99570.27;;;15.89;96.39
62928;BME280;51070;52.236;-0.892;2023-07-29T05:02:41;99572.34;;;15.91;96.38
62928;BME280;51070;52.236;-0.892;2023-07-29T05:05:07;99568.30;;;15.94;96.58
62928;BME280;51070;52.236;-0.892;2023-07-29T05:07:33;99564.98;;;15.97;96.40
62928;BME280;51070;52.236;-0.892;2023-07-29T05:09:58;99563.73;;;16.00;96.69
62928;BME280;51070;52.236;-0.892;2023-07-29T05:12:24;99562.15;;;16.01;96.74
62928;BME280;51070;52.236;-0.892;2023-07-29T05:14:49;99568.61;;;15.99;96.64
62928;BME280;51070;52.236;-0.892;2023-07-29T05:17:14;99570.70;;;15.98;96.73
62928;BME280;51070;52.236;-0.892;2023-07-29T05:19:40;99576.27;;;15.98;97.03
62928;BME280;51070;52.236;-0.892;2023-07-29T05:22:05;99573.13;;;16.00;97.36
62928;BME280;51070;52.236;-0.892;2023-07-29T05:24:31;99574.00;;;16.01;97.20
62928;BME280;51070;52.236;-0.892;2023-07-29T05:26:56;99578.17;;;16.03;97.23
62928;BME280;51070;52.236;-0.892;2023-07-29T05:29:21;99580.05;;;16.07;97.20
62928;BME280;51070;52.236;-0.892;2023-07-29T05:31:47;99581.80;;;16.07;97.28
62928;BME280;51070;52.236;-0.892;2023-07-29T05:34:12;99579.36;;;16.08;97.27
62928;BME280;51070;52.236;-0.892;2023-07-29T05:36:37;99580.02;;;16.11;97.03
62928;BME280;51070;52.236;-0.892;2023-07-29T05:39:04;99579.80;;;16.16;97.07
62928;BME280;51070;52.236;-0.892;2023-07-29T05:41:29;99577.88;;;16.18;96.76
62928;BME280;51070;52.236;-0.892;2023-07-29T05:43:55;99579.40;;;16.22;96.47
62928;BME280;51070;52.236;-0.892;2023-07-29T05:46:20;99583.88;;;16.27;96.29
62928;BME280;51070;52.236;-0.892;2023-07-29T05:48:45;99581.75;;;16.31;96.02
62928;BME280;51070;52.236;-0.892;2023-07-29T05:51:11;99582.78;;;16.35;95.65
62928;BME280;51070;52.236;-0.892;2023-07-29T05:53:36;99585.17;;;16.39;95.43
62928;BME280;51070;52.236;-0.892;2023-07-29T05:56:02;99581.11;;;16.45;95.08
62928;BME280;51070;52.236;-0.892;2023-07-29T05:58:27;99580.55;;;16.47;94.48
62928;BME280;51070;52.236;-0.892;2023-07-29T06:00:53;99584.19;;;16.51;94.06
62928;BME280;51070;52.236;-0.892;2023-07-29T06:03:18;99583.11;;;16.53;93.72
62928;BME280;51070;52.236;-0.892;2023-07-29T06:05:43;99584.64;;;16.58;93.23
62928;BME280;51070;52.236;-0.892;2023-07-29T06:08:09;99587.77;;;16.62;92.83
62928;BME280;51070;52.236;-0.892;2023-07-29T06:10:34;99585.58;;;16.71;92.61
62928;BME280;51070;52.236;-0.892;2023-07-29T06:12:59;99590.34;;;16.83;91.81
62928;BME280;51070;52.236;-0.892;2023-07-29T06:15:25;99589.98;;;16.84;91.02
62928;BME280;51070;52.236;-0.892;2023-07-29T06:17:50;99595.13;;;16.92;90.89
62928;BME280;51070;52.236;-0.892;2023-07-29T06:20:16;99597.09;;;17.02;90.15
62928;BME280;51070;52.236;-0.892;2023-07-29T06:22:41;99594.13;;;17.16;90.38
62928;BME280;51070;52.236;-0.892;2023-07-29T06:25:08;99593.90;;;17.34;89.70
62928;BME280;51070;52.236;-0.892;2023-07-29T06:27:33;99591.05;;;17.52;88.66
62928;BME280;51070;52.236;-0.892;2023-07-29T06:29:59;99588.70;;;17.71;86.60
62928;BME280;51070;52.236;-0.892;2023-07-29T06:32:24;99587.33;;;17.92;85.66
62928;BME280;51070;52.236;-0.892;2023-07-29T06:34:49;99590.30;;;18.14;84.23
62928;BME280;51070;52.236;-0.892;2023-07-29T06:37:17;99587.73;;;18.32;82.59
62928;BME280;51070;52.236;-0.892;2023-07-29T06:39:42;99583.55;;;18.69;80.40
62928;BME280;51070;52.236;-0.892;2023-07-29T06:42:08;99582.42;;;20.46;73.61
62928;BME280;51070;52.236;-0.892;2023-07-29T06:44:33;99588.44;;;20.91;70.19
62928;BME280;51070;52.236;-0.892;2023-07-29T06:46:58;99584.83;;;21.08;69.97
62928;BME280;51070;52.236;-0.892;2023-07-29T06:49:24;99588.06;;;20.92;70.00
62928;BME280;51070;52.236;-0.892;2023-07-29T06:51:49;99588.30;;;20.64;67.97
62928;BME280;51070;52.236;-0.892;2023-07-29T06:54:16;99583.03;;;20.44;69.54
62928;BME280;51070;52.236;-0.892;2023-07-29T06:56:41;99588.43;;;20.46;69.93
62928;BME280;51070;52.236;-0.892;2023-07-29T06:59:07;99594.13;;;20.76;67.98
62928;BME280;51070;52.236;-0.892;2023-07-29T07:01:32;99595.11;;;20.79;68.04
62928;BME280;51070;52.236;-0.892;2023-07-29T07:03:58;99595.46;;;20.78;66.62
62928;BME280;51070;52.236;-0.892;2023-07-29T07:06:23;99597.86;;;21.12;66.07
62928;BME280;51070;52.236;-0.892;2023-07-29T07:08:50;99593.02;;;21.81;63.40
62928;BME280;51070;52.236;-0.892;2023-07-29T07:11:16;99596.75;;;21.62;63.21
62928;BME280;51070;52.236;-0.892;2023-07-29T07:13:41;99600.75;;;21.46;64.00
62928;BME280;51070;52.236;-0.892;2023-07-29T07:16:06;99595.92;;;21.19;63.14
62928;BME280;51070;52.236;-0.892;2023-07-29T07:18:32;99600.20;;;20.98;64.18
62928;BME280;51070;52.236;-0.892;2023-07-29T07:20:57;99604.89;;;20.87;64.18
62928;BME280;51070;52.236;-0.892;2023-07-29T07:23:22;99599.56;;;21.44;63.19
62928;BME280;51070;52.236;-0.892;2023-07-29T07:25:48;99598.23;;;21.83;61.70
62928;BME280;51070;52.236;-0.892;2023-07-29T07:28:13;99598.73;;;21.60;62.02
62928;BME280;51070;52.236;-0.892;2023-07-29T07:30:41;99601.83;;;21.39;62.52
62928;BME280;51070;52.236;-0.892;2023-07-29T07:33:07;99598.09;;;21.24;62.78
62928;BME280;51070;52.236;-0.892;2023-07-29T07:35:32;99600.58;;;21.15;61.95
62928;BME280;51070;52.236;-0.892;2023-07-29T07:37:58;99600.69;;;21.30;62.02
62928;BME280;51070;52.236;-0.892;2023-07-29T07:40:24;99597.63;;;21.97;60.17
62928;BME280;51070;52.236;-0.892;2023-07-29T07:42:50;99592.08;;;22.21;60.14
62928;BME280;51070;52.236;-0.892;2023-07-29T07:45:15;99587.39;;;22.96;56.78
62928;BME280;51070;52.236;-0.892;2023-07-29T07:47:43;99591.54;;;23.32;55.53
62928;BME280;51070;52.236;-0.892;2023-07-29T07:50:08;99591.42;;;23.44;55.01
62928;BME280;51070;52.236;-0.892;2023-07-29T07:52:34;99590.08;;;23.88;54.50
62928;BME280;51070;52.236;-0.892;2023-07-29T07:54:59;99586.98;;;23.85;53.35
62928;BME280;51070;52.236;-0.892;2023-07-29T07:57:24;99587.20;;;23.53;53.72
62928;BME280;51070;52.236;-0.892;2023-07-29T07:59:50;99594.15;;;23.42;54.04
62928;BME280;51070;52.236;-0.892;2023-07-29T08:02:18;99589.91;;;24.13;52.69
62928;BME280;51070;52.236;-0.892;2023-07-29T08:04:43;99589.92;;;25.68;49.69
62928;BME280;51070;52.236;-0.892;2023-07-29T08:07:09;99582.25;;;27.74;47.65
62928;BME280;51070;52.236;-0.892;2023-07-29T08:09:34;99587.04;;;29.72;43.26
62928;BME280;51070;52.236;-0.892;2023-07-29T08:12:00;99583.20;;;31.09;40.96
62928;BME280;51070;52.236;-0.892;2023-07-29T08:14:25;99586.41;;;31.79;38.49
62928;BME280;51070;52.236;-0.892;2023-07-29T08:16:51;99590.70;;;32.06;37.16
62928;BME280;51070;52.236;-0.892;2023-07-29T08:19:17;99595.98;;;32.91;35.20
62928;BME280;51070;52.236;-0.892;2023-07-29T08:21:42;99597.19;;;33.99;33.29
62928;BME280;51070;52.236;-0.892;2023-07-29T08:24:07;99596.81;;;34.89;30.24
62928;BME280;51070;52.236;-0.892;2023-07-29T08:26:33;99598.24;;;35.44;29.85
62928;BME280;51070;52.236;-0.892;2023-07-29T08:28:58;99601.73;;;35.70;30.15
62928;BME280;51070;52.236;-0.892;2023-07-29T08:31:24;99601.28;;;34.20;30.86
62928;BME280;51070;52.236;-0.892;2023-07-29T08:33:49;99600.02;;;32.64;32.54
62928;BME280;51070;52.236;-0.892;2023-07-29T08:36:15;99593.42;;;32.62;32.82
62928;BME280;51070;52.236;-0.892;2023-07-29T08:38:41;99592.77;;;33.09;31.75
62928;BME280;51070;52.236;-0.892;2023-07-29T08:41:25;99587.48;;;33.99;30.40
62928;BME280;51070;52.236;-0.892;2023-07-29T08:44:01;99585.31;;;34.13;29.97
62928;BME280;51070;52.236;-0.892;2023-07-29T08:46:28;99589.89;;;32.64;32.23
62928;BME280;51070;52.236;-0.892;2023-07-29T08:48:55;99582.70;;;32.57;31.07
62928;BME280;51070;52.236;-0.892;2023-07-29T08:51:21;99578.10;;;31.66;32.06
62928;BME280;51070;52.236;-0.892;2023-07-29T08:53:49;99581.80;;;31.42;33.57
62928;BME280;51070;52.236;-0.892;2023-07-29T08:56:15;99576.43;;;32.57;32.94
62928;BME280;51070;52.236;-0.892;2023-07-29T08:58:41;99571.73;;;33.82;31.10
62928;BME280;51070;52.236;-0.892;2023-07-29T09:01:07;99576.23;;;34.96;28.01
62928;BME280;51070;52.236;-0.892;2023-07-29T09:03:33;99581.20;;;34.22;27.88
62928;BME280;51070;52.236;-0.892;2023-07-29T09:05:59;99582.04;;;32.65;28.92
62928;BME280;51070;52.236;-0.892;2023-07-29T09:08:26;99585.73;;;31.08;31.27
62928;BME280;51070;52.236;-0.892;2023-07-29T09:10:53;99596.91;;;29.63;33.68
62928;BME280;51070;52.236;-0.892;2023-07-29T09:13:20;99591.45;;;28.94;35.47
62928;BME280;51070;52.236;-0.892;2023-07-29T09:15:46;99590.38;;;28.16;36.30
62928;BME280;51070;52.236;-0.892;2023-07-29T09:18:15;99592.70;;;27.50;37.54
62928;BME280;51070;52.236;-0.892;2023-07-29T09:20:41;99589.65;;;27.22;37.85
62928;BME280;51070;52.236;-0.892;2023-07-29T09:23:08;99586.23;;;27.03;38.42
62928;BME280;51070;52.236;-0.892;2023-07-29T09:25:36;99587.71;;;26.61;39.05
62928;BME280;51070;52.236;-0.892;2023-07-29T09:28:08;99583.25;;;26.38;39.87
62928;BME280;51070;52.236;-0.892;2023-07-29T09:30:34;99589.23;;;26.93;39.58
62928;BME280;51070;52.236;-0.892;2023-07-29T09:33:00;99586.21;;;27.19;38.70
62928;BME280;51070;52.236;-0.892;2023-07-29T09:35:28;99584.14;;;29.00;37.20
62928;BME280;51070;52.236;-0.892;2023-07-29T09:37:53;99594.95;;;30.58;34.44
62928;BME280;51070;52.236;-0.892;2023-07-29T09:40:19;99589.38;;;31.65;32.10
62928;BME280;51070;52.236;-0.892;2023-07-29T09:42:51;99587.76;;;32.31;31.62
62928;BME280;51070;52.236;-0.892;2023-07-29T09:45:25;99590.66;;;31.62;32.23
62928;BME280;51070;52.236;-0.892;2023-07-29T09:47:56;99590.70;;;31.07;33.18
62928;BME280;51070;52.236;-0.892;2023-07-29T09:50:26;99585.19;;;30.47;33.74
62928;BME280;51070;52.236;-0.892;2023-07-29T09:52:54;99590.60;;;29.73;34.42
62928;BME280;51070;52.236;-0.892;2023-07-29T09:55:23;99584.79;;;29.04;35.69
62928;BME280;51070;52.236;-0.892;2023-07-29T09:57:59;99590.25;;;28.25;36.12
62928;BME280;51070;52.236;-0.892;2023-07-29T10:00:31;99600.14;;;27.37;37.47
62928;BME280;51070;52.236;-0.892;2023-07-29T10:02:57;99598.76;;;26.83;38.71
62928;BME280;51070;52.236;-0.892;2023-07-29T10:05:26;99598.68;;;26.29;39.85
62928;BME280;51070;52.236;-0.892;2023-07-29T10:07:51;99602.65;;;25.88;40.32
62928;BME280;51070;52.236;-0.892;2023-07-29T10:10:17;99607.81;;;25.46;41.06
62928;BME280;51070;52.236;-0.892;2023-07-29T10:12:43;99609.61;;;25.15;42.18
62928;BME280;51070;52.236;-0.892;2023-07-29T10:15:09;99608.37;;;24.70;44.25
62928;BME280;51070;52.236;-0.892;2023-07-29T10:17:36;99606.84;;;24.31;45.11
62928;BME280;51070;52.236;-0.892;2023-07-29T10:20:04;99612.90;;;24.59;45.88
62928;BME280;51070;52.236;-0.892;2023-07-29T10:22:48;99611.70;;;24.95;45.34
62928;BME280;51070;52.236;-0.892;2023-07-29T10:25:18;99618.54;;;25.20;44.97
62928;BME280;51070;52.236;-0.892;2023-07-29T10:27:56;99628.05;;;24.89;45.28
62928;BME280;51070;52.236;-0.892;2023-07-29T10:30:21;99637.42;;;24.51;45.43
62928;BME280;51070;52.236;-0.892;2023-07-29T10:32:48;99662.85;;;23.90;46.73
62928;BME280;51070;52.236;-0.892;2023-07-29T10:35:15;99675.23;;;23.18;49.52
62928;BME280;51070;52.236;-0.892;2023-07-29T10:37:42;99662.89;;;22.57;51.32
62928;BME280;51070;52.236;-0.892;2023-07-29T10:40:09;99662.42;;;22.11;52.59
62928;BME280;51070;52.236;-0.892;2023-07-29T10:42:36;99657.77;;;21.85;53.10
62928;BME280;51070;52.236;-0.892;2023-07-29T10:45:19;99653.38;;;21.80;53.95
62928;BME280;51070;52.236;-0.892;2023-07-29T10:47:45;99649.04;;;22.22;54.08
62928;BME280;51070;52.236;-0.892;2023-07-29T10:50:20;99648.67;;;23.16;54.34
62928;BME280;51070;52.236;-0.892;2023-07-29T10:52:50;99643.46;;;24.50;52.09
62928;BME280;51070;52.236;-0.892;2023-07-29T10:55:25;99643.78;;;24.97;51.10
62928;BME280;51070;52.236;-0.892;2023-07-29T10:57:51;99648.29;;;25.46;49.34
62928;BME280;51070;52.236;-0.892;2023-07-29T11:00:19;99646.71;;;26.03;49.31
62928;BME280;51070;52.236;-0.892;2023-07-29T11:03:00;99640.27;;;26.55;48.06
62928;BME280;51070;52.236;-0.892;2023-07-29T11:05:46;99647.00;;;26.59;47.28
62928;BME280;51070;52.236;-0.892;2023-07-29T11:08:28;99639.98;;;26.57;46.36
62928;BME280;51070;52.236;-0.892;2023-07-29T11:11:05;99643.15;;;26.85;46.72
62928;BME280;51070;52.236;-0.892;2023-07-29T11:13:34;99639.92;;;27.17;46.04
62928;BME280;51070;52.236;-0.892;2023-07-29T11:16:00;99640.94;;;27.21;45.90
62928;BME280;51070;52.236;-0.892;2023-07-29T11:18:28;99642.61;;;27.13;44.49
62928;BME280;51070;52.236;-0.892;2023-07-29T11:20:55;99645.79;;;27.10;42.53
62928;BME280;51070;52.236;-0.892;2023-07-29T11:23:27;99641.13;;;26.94;41.59
62928;BME280;51070;52.236;-0.892;2023-07-29T11:25:54;99638.25;;;26.70;41.51
62928;BME280;51070;52.236;-0.892;2023-07-29T11:28:19;99642.31;;;26.43;42.39
62928;BME280;51070;52.236;-0.892;2023-07-29T11:30:45;99631.49;;;26.46;42.58
62928;BME280;51070;52.236;-0.892;2023-07-29T11:33:10;99628.29;;;26.47;43.52
62928;BME280;51070;52.236;-0.892;2023-07-29T11:35:36;99625.09;;;26.44;42.85
62928;BME280;51070;52.236;-0.892;2023-07-29T11:38:02;99627.12;;;26.49;42.57
62928;BME280;51070;52.236;-0.892;2023-07-29T11:40:29;99631.56;;;26.31;42.58
62928;BME280;51070;52.236;-0.892;2023-07-29T11:42:54;99633.75;;;26.18;41.89
62928;BME280;51070;52.236;-0.892;2023-07-29T11:45:21;99627.55;;;26.11;41.53
62928;BME280;51070;52.236;-0.892;2023-07-29T11:47:47;99628.84;;;26.21;42.01
62928;BME280;51070;52.236;-0.892;2023-07-29T11:50:13;99620.40;;;26.23;40.98
62928;BME280;51070;52.236;-0.892;2023-07-29T11:52:44;99632.05;;;26.06;41.15
62928;BME280;51070;52.236;-0.892;2023-07-29T11:55:09;99641.48;;;25.98;40.78
62928;BME280;51070;52.236;-0.892;2023-07-29T11:57:37;99628.33;;;25.88;40.54
62928;BME280;51070;52.236;-0.892;2023-07-29T12:00:06;99634.09;;;25.59;41.02
62928;BME280;51070;52.236;-0.892;2023-07-29T12:02:42;99637.02;;;25.41;41.04
62928;BME280;51070;52.236;-0.892;2023-07-29T12:05:12;99636.68;;;25.25;41.31
62928;BME280;51070;52.236;-0.892;2023-07-29T12:07:39;99641.80;;;25.06;41.78
62928;BME280;51070;52.236;-0.892;2023-07-29T12:10:05;99640.30;;;24.88;42.25
62928;BME280;51070;52.236;-0.892;2023-07-29T12:12:31;99651.18;;;24.69;42.48
62928;BME280;51070;52.236;-0.892;2023-07-29T12:14:57;99661.06;;;24.35;42.97
62928;BME280;51070;52.236;-0.892;2023-07-29T12:17:22;99663.11;;;24.01;43.77
62928;BME280;51070;52.236;-0.892;2023-07-29T12:19:48;99675.11;;;23.69;44.70
62928;BME280;51070;52.236;-0.892;2023-07-29T12:22:19;99675.82;;;23.40;45.42
62928;BME280;51070;52.236;-0.892;2023-07-29T12:24:44;99677.77;;;23.06;46.41
62928;BME280;51070;52.236;-0.892;2023-07-29T12:27:12;99673.27;;;22.78;46.90
62928;BME280;51070;52.236;-0.892;2023-07-29T12:29:42;99666.70;;;22.68;46.90
62928;BME280;51070;52.236;-0.892;2023-07-29T12:32:08;99664.80;;;22.84;46.88
62928;BME280;51070;52.236;-0.892;2023-07-29T12:34:35;99662.86;;;23.38;44.78
62928;BME280;51070;52.236;-0.892;2023-07-29T12:37:03;99658.23;;;23.82;42.98
62928;BME280;51070;52.236;-0.892;2023-07-29T12:39:31;99653.66;;;24.08;43.01
62928;BME280;51070;52.236;-0.892;2023-07-29T12:41:59;99658.27;;;24.30;42.09
62928;BME280;51070;52.236;-0.892;2023-07-29T12:44:29;99654.45;;;24.45;40.67
62928;BME280;51070;52.236;-0.892;2023-07-29T12:46:54;99653.63;;;24.48;40.47
62928;BME280;51070;52.236;-0.892;2023-07-29T12:49:20;99655.88;;;24.49;39.80
62928;BME280;51070;52.236;-0.892;2023-07-29T12:51:45;99650.95;;;24.45;39.30
62928;BME280;51070;52.236;-0.892;2023-07-29T12:54:10;99662.30;;;24.48;38.93
62928;BME280;51070;52.236;-0.892;2023-07-29T12:56:36;99658.02;;;24.45;39.06